createdAt,value
2019-05-02T00:02:00.528Z,35.27
2019-05-02T00:04:27.674Z,38.07
2019-05-02T00:07:08.068Z,42.20
2019-05-02T00:09:35.699Z,45.93
2019-05-02T00:12:05.130Z,35.80
2019-05-02T00:14:32.576Z,39.27
2019-05-02T00:16:59.509Z,41.27
2019-05-02T00:19:26.546Z,45.10
2019-05-02T00:21:53.719Z,37.67
2019-05-02T00:24:20.755Z,45.50
2019-05-02T00:26:47.732Z,49.63
2019-05-02T00:29:18.942Z,38.60
2019-05-02T00:31:46.944Z,29.40
2019-05-02T00:34:14.435Z,26.23
2019-05-02T00:36:41.582Z,23.97
2019-05-02T00:39:09.624Z,31.40
2019-05-02T00:41:38.470Z,25.97
2019-05-02T00:44:11.114Z,26.80
2019-05-02T00:46:36.179Z,27.00
2019-05-02T00:49:03.290Z,35.53
2019-05-02T00:51:32.110Z,38.43
2019-05-02T00:53:59.040Z,40.30
2019-05-02T00:56:27.827Z,39.93
2019-05-02T00:58:54.869Z,31.30
2019-05-02T01:01:40.271Z,29.70
2019-05-02T01:04:29.203Z,37.10
2019-05-02T01:06:56.230Z,23.00
2019-05-02T01:09:23.167Z,26.83
2019-05-02T01:11:50.110Z,33.20
2019-05-02T01:14:17.105Z,26.80
2019-05-02T01:16:44.144Z,25.73
2019-05-02T01:19:12.208Z,34.00
2019-05-02T01:21:40.121Z,34.03
2019-05-02T01:24:07.318Z,32.17
2019-05-02T01:27:14.456Z,33.27
2019-05-02T01:29:46.713Z,23.00
2019-05-02T01:32:25.142Z,35.80
2019-05-02T01:35:10.056Z,32.10
2019-05-02T01:37:56.136Z,30.33
2019-05-02T01:40:23.287Z,27.20
2019-05-02T01:42:51.042Z,23.40
2019-05-02T01:45:18.155Z,26.83
2019-05-02T01:47:45.215Z,36.93
2019-05-02T01:50:12.608Z,28.23
2019-05-02T01:52:41.189Z,39.57
2019-05-02T01:55:08.435Z,35.23
2019-05-02T01:57:35.414Z,37.43
2019-05-02T02:00:09.416Z,26.63
2019-05-02T02:02:34.102Z,33.73
2019-05-02T02:05:01.157Z,31.60
2019-05-02T02:07:28.250Z,34.53
2019-05-02T02:09:56.384Z,41.33
2019-05-02T02:12:30.535Z,39.37
2019-05-02T02:14:57.593Z,41.23
2019-05-02T02:17:24.523Z,43.40
2019-05-02T02:19:55.747Z,42.17
2019-05-02T02:22:42.413Z,42.73
2019-05-02T02:25:32.344Z,43.90
2019-05-02T02:28:01.731Z,41.57
2019-05-02T02:30:28.766Z,45.77
2019-05-02T02:33:00.739Z,42.07
2019-05-02T02:35:24.640Z,42.20
2019-05-02T02:37:53.319Z,45.90
2019-05-02T02:40:20.416Z,46.50
2019-05-02T02:42:47.388Z,39.40
2019-05-02T02:45:58.051Z,33.40
2019-05-02T02:48:24.225Z,31.23
2019-05-02T02:50:51.213Z,30.60
2019-05-02T02:53:29.117Z,31.73
2019-05-02T02:56:02.079Z,45.73
2019-05-02T02:58:25.338Z,40.87
2019-05-02T03:01:12.347Z,34.47
2019-05-02T03:03:39.519Z,40.63
2019-05-02T03:06:28.457Z,34.83
2019-05-02T03:08:55.389Z,32.20
2019-05-02T03:11:25.569Z,32.60
2019-05-02T03:14:09.638Z,31.40
2019-05-02T03:16:46.059Z,32.23
2019-05-02T03:19:05.861Z,39.17
2019-05-02T03:21:32.938Z,48.60
2019-05-02T03:24:03.491Z,46.67
2019-05-02T03:26:28.758Z,42.33
2019-05-02T03:28:58.955Z,38.00
2019-05-02T03:31:30.260Z,42.60
2019-05-02T03:33:59.723Z,35.77
2019-05-02T03:36:30.578Z,34.33
2019-05-02T03:38:52.096Z,38.67
2019-05-02T03:41:20.817Z,40.47
2019-05-02T03:43:48.641Z,43.10
2019-05-02T03:46:20.607Z,43.70
2019-05-02T03:48:45.614Z,41.90
2019-05-02T03:51:21.298Z,43.60
2019-05-02T03:53:41.746Z,43.57
2019-05-02T03:56:11.370Z,46.13
2019-05-02T03:58:37.658Z,48.90
2019-05-02T04:01:04.594Z,47.57
2019-05-02T04:03:34.222Z,47.07
2019-05-02T04:06:01.041Z,49.30
2019-05-02T04:08:28.614Z,49.40
2019-05-02T04:11:24.453Z,48.57
2019-05-02T04:13:53.001Z,41.80
2019-05-02T04:16:21.414Z,32.50
2019-05-02T04:18:55.088Z,28.50
2019-05-02T04:21:24.413Z,36.93
2019-05-02T04:23:48.116Z,39.73
2019-05-02T04:26:16.914Z,37.00
2019-05-02T04:28:45.368Z,41.27
2019-05-02T04:31:12.931Z,47.70
2019-05-02T04:33:40.608Z,35.27
2019-05-02T04:36:14.826Z,44.97
2019-05-02T04:38:44.533Z,47.17
2019-05-02T04:41:05.398Z,47.70
2019-05-02T04:43:40.576Z,49.00
2019-05-02T04:46:09.255Z,49.83
2019-05-02T04:48:34.818Z,49.37
2019-05-02T04:51:10.154Z,48.23
2019-05-02T04:53:36.883Z,49.63
2019-05-02T04:56:04.408Z,48.37
2019-05-02T04:58:34.790Z,52.03
2019-05-02T05:01:01.795Z,55.27
2019-05-02T05:03:28.519Z,54.67
2019-05-02T05:05:59.376Z,55.10
2019-05-02T05:08:26.343Z,56.10
2019-05-02T05:10:53.245Z,51.53
2019-05-02T05:13:23.297Z,59.50
2019-05-02T05:15:51.896Z,63.30
2019-05-02T05:18:20.828Z,67.97
2019-05-02T05:20:54.262Z,65.47
2019-05-02T05:23:59.307Z,65.30
2019-05-02T05:26:21.924Z,61.80
2019-05-02T05:28:49.965Z,62.17
2019-05-02T05:31:23.962Z,65.33
2019-05-02T05:33:47.777Z,65.43
2019-05-02T05:36:14.599Z,60.47
2019-05-02T05:38:41.586Z,60.17
2019-05-02T05:41:12.831Z,63.37
2019-05-02T05:43:37.963Z,64.03
2019-05-02T05:46:10.740Z,60.03
2019-05-02T05:48:37.218Z,59.60
2019-05-02T05:51:03.102Z,57.67
2019-05-02T05:53:32.128Z,59.07
2019-05-02T05:56:09.204Z,56.93
2019-05-02T05:58:39.968Z,57.27
2019-05-02T06:01:09.344Z,61.83
2019-05-02T06:03:38.871Z,60.63
2019-05-02T06:06:03.042Z,61.37
2019-05-02T06:08:30.023Z,60.03
2019-05-02T06:10:56.985Z,55.03
2019-05-02T06:13:25.154Z,59.37
2019-05-02T06:16:02.107Z,59.10
2019-05-02T06:18:28.440Z,57.63
2019-05-02T06:20:58.359Z,55.17
2019-05-02T06:23:24.726Z,54.47
2019-05-02T06:25:51.665Z,57.03
2019-05-02T06:28:18.661Z,56.60
2019-05-02T06:30:45.611Z,51.00
2019-05-02T06:33:12.545Z,51.20
2019-05-02T06:35:39.511Z,51.77
2019-05-02T06:38:06.438Z,54.87
2019-05-02T06:40:33.380Z,48.37
2019-05-02T06:43:04.298Z,53.00
2019-05-02T06:45:32.200Z,51.03
2019-05-02T06:48:01.000Z,47.27
2019-05-02T06:50:28.099Z,54.00
2019-05-02T06:52:55.035Z,52.80
2019-05-02T06:55:21.990Z,53.70
2019-05-02T06:57:51.618Z,55.83
2019-05-02T07:00:18.075Z,45.07
2019-05-02T07:02:45.001Z,54.60
2019-05-02T07:05:12.450Z,56.67
2019-05-02T07:07:39.391Z,55.10
2019-05-02T07:10:07.468Z,55.43
2019-05-02T07:12:34.664Z,55.67
2019-05-02T07:15:03.845Z,53.77
2019-05-02T07:17:41.358Z,53.30
2019-05-02T07:27:20.971Z,53.57
2019-05-02T07:29:52.127Z,53.53
2019-05-02T07:32:24.078Z,54.60
2019-05-02T07:34:48.139Z,58.47
2019-05-02T07:37:15.408Z,55.33
2019-05-02T07:39:46.215Z,58.13
2019-05-02T07:42:13.233Z,58.23
2019-05-02T07:44:40.239Z,56.93
2019-05-02T07:47:07.185Z,57.50
2019-05-02T07:49:34.368Z,55.57
2019-05-02T07:52:01.752Z,57.40
2019-05-02T07:54:28.803Z,54.87
2019-05-02T07:56:55.763Z,54.63
2019-05-02T07:59:23.436Z,55.43
2019-05-02T08:01:51.009Z,58.03
2019-05-02T08:04:17.951Z,57.97
2019-05-02T08:06:46.382Z,58.77
2019-05-02T08:09:13.483Z,59.13
2019-05-02T08:11:40.532Z,60.67
2019-05-02T08:14:07.508Z,57.70
2019-05-02T08:16:34.590Z,57.20
2019-05-02T08:19:05.542Z,64.97
2019-05-02T08:21:33.957Z,62.60
2019-05-02T08:24:02.197Z,64.13
2019-05-02T08:26:47.719Z,61.20
2019-05-02T08:29:15.238Z,66.20
2019-05-02T08:31:42.214Z,67.70
2019-05-02T08:34:14.690Z,71.33
2019-05-02T08:36:38.116Z,68.20
2019-05-02T08:39:05.596Z,71.77
2019-05-02T08:41:32.674Z,69.20
2019-05-02T08:43:59.613Z,73.10
2019-05-02T08:46:26.776Z,70.33
2019-05-02T08:48:53.974Z,68.33
2019-05-02T08:51:20.890Z,68.07
2019-05-02T08:53:52.112Z,69.07
2019-05-02T08:56:21.347Z,69.83
2019-05-02T08:58:49.820Z,68.27
2019-05-02T09:01:16.244Z,69.23
2019-05-02T09:03:55.062Z,65.87
2019-05-02T09:06:12.288Z,66.43
2019-05-02T09:08:39.235Z,67.10
2019-05-02T09:11:06.334Z,68.00
2019-05-02T09:13:33.280Z,69.53
2019-05-02T09:16:02.693Z,70.83
2019-05-02T09:18:35.068Z,65.33
2019-05-02T09:20:58.018Z,66.97
2019-05-02T09:23:27.455Z,65.63
2019-05-02T09:25:53.842Z,64.33
2019-05-02T09:28:22.454Z,65.43
2019-05-02T09:30:49.652Z,61.47
2019-05-02T09:33:16.738Z,62.90
2019-05-02T09:35:43.673Z,58.87
2019-05-02T09:38:12.486Z,59.60
2019-05-02T09:40:42.633Z,60.07
2019-05-02T09:43:09.643Z,58.37
2019-05-02T09:45:55.156Z,60.17
2019-05-02T09:48:26.656Z,58.10
2019-05-02T09:50:52.848Z,57.37
2019-05-02T09:53:24.219Z,54.67
2019-05-02T09:55:57.163Z,55.27
2019-05-02T09:58:21.891Z,52.03
2019-05-02T10:00:56.426Z,53.93
2019-05-02T10:03:25.827Z,51.27
2019-05-02T10:05:52.779Z,53.27
2019-05-02T10:08:19.854Z,52.00
2019-05-02T10:10:46.861Z,52.30
2019-05-02T10:13:13.849Z,50.97
2019-05-02T10:15:42.119Z,50.27
2019-05-02T10:18:12.038Z,50.23
2019-05-02T10:20:38.358Z,48.67
2019-05-02T10:23:05.331Z,50.00
2019-05-02T10:25:38.443Z,48.63
2019-05-02T10:28:02.154Z,49.43
2019-05-02T10:30:35.608Z,49.43
2019-05-02T10:33:07.292Z,48.63
2019-05-02T10:35:40.814Z,51.13
2019-05-02T10:38:09.442Z,52.83
2019-05-02T10:40:35.844Z,49.33
2019-05-02T10:43:04.496Z,50.33
2019-05-02T10:45:32.124Z,50.30
2019-05-02T10:47:59.221Z,51.03
2019-05-02T10:50:32.753Z,50.47
2019-05-02T10:53:03.577Z,50.40
2019-05-02T10:55:28.393Z,47.70
2019-05-02T10:57:55.322Z,48.87
2019-05-02T11:00:25.916Z,46.43
2019-05-02T11:03:18.606Z,49.37
2019-05-02T11:05:49.042Z,46.70
2019-05-02T11:08:16.164Z,43.53
2019-05-02T11:10:44.124Z,43.97
2019-05-02T11:13:16.990Z,45.00
2019-05-02T11:16:03.770Z,44.30
2019-05-02T11:18:42.383Z,44.43
2019-05-02T11:21:06.782Z,46.37
2019-05-02T11:23:32.858Z,42.27
2019-05-02T11:26:01.747Z,40.57
2019-05-02T11:28:28.835Z,38.73
2019-05-02T11:31:01.509Z,36.80
2019-05-02T11:33:25.951Z,38.63
2019-05-02T11:35:53.565Z,39.73
2019-05-02T11:38:36.361Z,39.73
2019-05-02T11:40:49.628Z,37.47
2019-05-02T11:43:16.623Z,39.27
2019-05-02T11:45:45.377Z,38.03
2019-05-02T11:48:14.017Z,36.03
2019-05-02T11:50:42.258Z,36.80
2019-05-02T11:53:23.203Z,39.33
2019-05-02T11:55:41.384Z,36.20
2019-05-02T11:58:10.625Z,37.13
2019-05-02T12:00:39.687Z,37.63
2019-05-02T12:03:16.021Z,36.43
2019-05-02T12:05:43.511Z,40.23
2019-05-02T12:08:12.139Z,38.00
2019-05-02T12:10:39.351Z,38.23
2019-05-02T12:13:06.729Z,38.10
2019-05-02T12:15:35.170Z,38.87
2019-05-02T12:18:02.551Z,38.97
2019-05-02T12:20:35.291Z,39.60
2019-05-02T12:22:58.614Z,38.80
2019-05-02T12:25:25.689Z,39.30
2019-05-02T12:28:13.029Z,40.43
2019-05-02T12:30:41.890Z,39.33
2019-05-02T12:33:12.247Z,39.80
2019-05-02T12:35:39.514Z,40.90
2019-05-02T12:38:06.490Z,44.33
2019-05-02T12:40:33.453Z,43.20
2019-05-02T12:43:02.352Z,45.13
2019-05-02T12:45:29.281Z,47.70
2019-05-02T12:47:56.250Z,49.87
2019-05-02T12:50:23.467Z,55.93
2019-05-02T12:52:52.144Z,57.83
2019-05-02T12:55:19.443Z,68.30
2019-05-02T12:57:46.427Z,69.27
2019-05-02T13:00:15.176Z,72.13
2019-05-02T13:02:52.514Z,74.60
2019-05-02T13:05:19.678Z,74.57
2019-05-02T13:07:50.381Z,75.80
2019-05-02T13:10:25.262Z,77.13
2019-05-02T13:12:53.199Z,74.97
2019-05-02T13:15:22.033Z,74.90
2019-05-02T13:17:49.369Z,72.47
2019-05-02T13:20:18.235Z,73.07
2019-05-02T13:23:03.818Z,74.20
2019-05-02T13:25:32.908Z,73.00
2019-05-02T13:28:02.017Z,74.63
2019-05-02T13:30:42.737Z,74.50
2019-05-02T13:33:08.206Z,72.20
2019-05-02T13:35:47.895Z,71.57
2019-05-02T13:38:17.965Z,72.73
2019-05-02T13:40:45.062Z,69.73
2019-05-02T13:43:12.748Z,72.33
2019-05-02T13:46:12.676Z,68.00
2019-05-02T13:48:39.805Z,67.87
2019-05-02T13:51:06.765Z,71.20
2019-05-02T13:53:36.000Z,69.97
2019-05-02T13:56:22.108Z,68.93
2019-05-02T13:58:49.081Z,64.93
2019-05-02T14:01:16.802Z,63.27
2019-05-02T14:03:43.822Z,53.07
2019-05-02T14:06:12.572Z,56.63
2019-05-02T14:08:53.259Z,56.33
2019-05-02T14:11:41.028Z,54.60
2019-05-02T14:17:39.220Z,55.80
2019-05-02T14:20:10.431Z,54.17
2019-05-02T14:22:35.260Z,56.00
2019-05-02T14:25:02.336Z,56.03
2019-05-02T14:27:29.309Z,56.27
2019-05-02T14:29:56.299Z,53.33
2019-05-02T14:32:26.544Z,54.63
2019-05-02T14:35:09.227Z,54.47
2019-05-02T14:37:36.292Z,50.80
2019-05-02T14:40:11.772Z,49.93
2019-05-02T14:42:38.748Z,45.17
2019-05-02T14:45:27.279Z,41.63
2019-05-02T14:47:42.437Z,38.40
2019-05-02T14:50:22.788Z,35.83
2019-05-02T14:52:42.193Z,30.50
2019-05-02T14:55:09.124Z,34.00
2019-05-02T14:57:36.056Z,37.47
2019-05-02T15:00:04.187Z,36.80
2019-05-02T15:02:47.152Z,39.00
2019-05-02T15:05:12.830Z,43.73
2019-05-02T15:07:39.822Z,45.60
2019-05-02T15:10:07.144Z,48.40
2019-05-02T15:12:34.214Z,48.20
2019-05-02T15:15:02.542Z,48.00
2019-05-02T15:17:33.691Z,49.33
2019-05-02T15:19:59.269Z,50.03
2019-05-02T15:22:27.708Z,49.77
2019-05-02T15:24:56.535Z,51.30
2019-05-02T15:27:23.813Z,56.03
2019-05-02T15:30:06.564Z,57.03
2019-05-02T15:33:04.386Z,57.40
2019-05-02T15:36:03.252Z,57.33
2019-05-02T15:38:29.035Z,60.57
2019-05-02T15:40:59.131Z,60.97
2019-05-02T15:43:24.821Z,58.30
2019-05-02T15:45:52.660Z,60.27
2019-05-02T15:48:26.077Z,57.77
2019-05-02T15:50:52.998Z,61.03
2019-05-02T15:53:48.570Z,61.80
2019-05-02T15:56:19.867Z,62.80
2019-05-02T15:58:44.059Z,61.20
2019-05-02T16:01:29.478Z,57.67
2019-05-02T16:04:01.704Z,58.33
2019-05-02T16:06:31.696Z,56.70
2019-05-02T16:08:57.803Z,58.43
2019-05-02T16:11:24.741Z,56.37
2019-05-02T16:13:55.675Z,54.63
2019-05-02T16:16:21.897Z,54.80
2019-05-02T16:18:49.266Z,51.10
2019-05-02T16:21:42.513Z,50.00
2019-05-02T16:24:35.226Z,44.67
2019-05-02T16:27:02.245Z,40.30
2019-05-02T16:30:11.440Z,40.80
2019-05-02T16:32:46.036Z,38.53
2019-05-02T16:35:17.487Z,38.63
2019-05-02T16:37:46.769Z,39.00
2019-05-02T16:40:14.326Z,37.57
2019-05-02T16:42:41.934Z,39.23
2019-05-02T16:45:11.653Z,38.07
2019-05-02T16:47:38.404Z,37.73
2019-05-02T16:50:06.901Z,33.90
2019-05-02T16:52:38.106Z,30.97
2019-05-02T16:55:04.390Z,31.10
2019-05-02T16:57:34.837Z,31.40
2019-05-02T17:00:05.941Z,29.47
2019-05-02T17:02:29.134Z,30.53
2019-05-02T17:05:00.228Z,30.73
2019-05-02T17:07:41.080Z,28.57
2019-05-02T17:10:18.665Z,26.13
2019-05-02T17:12:47.329Z,26.37
2019-05-02T17:15:35.293Z,28.90
2019-05-02T17:18:12.608Z,23.73
2019-05-02T17:20:34.259Z,25.03
2019-05-02T17:23:07.897Z,26.20
2019-05-02T17:25:34.854Z,25.10
2019-05-02T17:28:07.024Z,24.67
2019-05-02T17:30:38.551Z,24.70
2019-05-02T17:33:01.749Z,25.33
2019-05-02T17:35:28.885Z,25.47
2019-05-02T17:37:55.884Z,28.77
2019-05-02T17:40:26.096Z,28.33
2019-05-02T17:42:52.520Z,26.67
2019-05-02T17:45:23.876Z,28.63
2019-05-02T17:47:50.669Z,28.30
2019-05-02T17:50:42.246Z,27.30
2019-05-02T17:53:09.298Z,27.37
2019-05-02T17:55:40.248Z,27.23
2019-05-02T17:58:12.537Z,25.43
2019-05-02T18:00:39.155Z,26.27
2019-05-02T18:03:06.126Z,26.03
2019-05-02T18:05:35.661Z,27.03
2019-05-02T18:08:06.102Z,27.20
2019-05-02T18:10:32.314Z,26.50
2019-05-02T18:13:00.002Z,26.00
2019-05-02T18:15:29.869Z,25.33
2019-05-02T18:17:59.884Z,26.20
2019-05-02T18:20:25.467Z,26.13
2019-05-02T18:22:52.613Z,28.63
2019-05-02T18:25:21.680Z,25.83
2019-05-02T18:27:48.829Z,28.30
2019-05-02T18:30:24.978Z,29.67
2019-05-02T18:32:48.142Z,29.20
2019-05-02T18:35:15.199Z,29.30
2019-05-02T18:37:46.639Z,30.30
2019-05-02T18:40:11.969Z,29.57
2019-05-02T18:42:39.103Z,28.47
2019-05-02T18:45:08.869Z,28.50
2019-05-02T18:47:35.943Z,28.47
2019-05-02T18:50:06.149Z,30.37
2019-05-02T18:52:42.908Z,30.67
2019-05-02T18:55:05.826Z,29.33
2019-05-02T18:57:32.905Z,25.63
2019-05-02T19:00:01.864Z,23.03
2019-05-02T19:02:32.767Z,25.33
2019-05-02T19:04:57.918Z,21.90
2019-05-02T19:07:32.824Z,20.27
2019-05-02T19:09:54.053Z,14.63
2019-05-02T19:12:24.002Z,14.27
2019-05-02T19:14:50.029Z,12.30
2019-05-02T19:17:17.031Z,11.57
2019-05-02T19:19:56.516Z,10.63
2019-05-02T19:22:24.712Z,10.40
2019-05-02T19:24:52.404Z,9.67
2019-05-02T19:27:48.357Z,9.20
2019-05-02T19:30:34.637Z,9.17
2019-05-02T19:33:06.087Z,9.83
2019-05-02T19:35:32.641Z,9.67
2019-05-02T19:38:02.578Z,10.57
2019-05-02T19:40:31.656Z,8.87
2019-05-02T19:43:05.942Z,8.33
2019-05-02T19:45:27.999Z,7.17
2019-05-02T19:47:57.664Z,7.63
2019-05-02T19:50:41.582Z,7.83
2019-05-02T19:53:15.155Z,8.00
2019-05-02T19:55:36.245Z,6.90
2019-05-02T19:58:06.494Z,7.17
2019-05-02T20:00:36.571Z,7.63
2019-05-02T20:03:03.914Z,7.90
2019-05-02T20:05:32.255Z,6.90
2019-05-02T20:07:59.635Z,7.27
2019-05-02T20:10:26.579Z,7.50
2019-05-02T20:12:53.570Z,7.13
2019-05-02T20:15:25.427Z,7.33
2019-05-02T20:17:53.470Z,6.67
2019-05-02T20:20:40.476Z,7.07
2019-05-02T20:23:15.482Z,7.47
2019-05-02T20:25:39.122Z,8.10
2019-05-02T20:28:06.072Z,7.87
2019-05-02T20:30:34.365Z,7.83
2019-05-02T20:33:05.361Z,8.00
2019-05-02T20:35:32.492Z,8.07
2019-05-02T20:38:01.564Z,7.80
2019-05-02T20:40:31.923Z,8.20
2019-05-02T20:42:59.579Z,7.67
2019-05-02T20:45:35.390Z,7.93
2019-05-02T20:48:02.445Z,7.10
2019-05-02T20:50:31.688Z,7.17
2019-05-02T20:52:58.476Z,8.33
2019-05-02T20:55:25.700Z,8.77
2019-05-02T20:57:54.520Z,9.33
2019-05-02T21:00:23.800Z,9.90
2019-05-02T21:02:51.894Z,10.93
2019-05-02T21:05:21.188Z,9.90
2019-05-02T21:08:05.182Z,9.93
2019-05-02T21:10:36.104Z,10.03
2019-05-02T21:13:04.061Z,9.70
2019-05-02T21:15:32.336Z,9.33
2019-05-02T21:17:59.497Z,9.43
2019-05-02T21:20:26.696Z,8.77
2019-05-02T21:22:53.737Z,9.00
2019-05-02T21:25:23.003Z,9.73
2019-05-02T21:27:49.727Z,9.93
2019-05-02T21:30:23.385Z,9.17
2019-05-02T21:32:52.064Z,9.50
2019-05-02T21:35:22.379Z,10.10
2019-05-02T21:37:49.405Z,9.50
2019-05-02T21:40:16.609Z,8.57
2019-05-02T21:42:43.682Z,9.50
2019-05-02T21:45:12.996Z,9.93
2019-05-02T21:47:39.724Z,9.80
2019-05-02T21:50:27.179Z,9.93
2019-05-02T21:53:19.824Z,9.93
2019-05-02T21:56:12.267Z,10.40
2019-05-02T21:58:42.766Z,9.87
2019-05-02T22:01:12.992Z,9.63
2019-05-02T22:03:40.585Z,9.77
2019-05-02T22:06:08.072Z,9.87
2019-05-02T22:08:35.100Z,9.33
2019-05-02T22:11:02.531Z,10.00
2019-05-02T22:13:31.468Z,9.70
2019-05-02T22:15:58.692Z,9.93
2019-05-02T22:19:08.073Z,10.37
2019-05-02T22:21:35.266Z,10.27
2019-05-02T22:24:11.248Z,10.67
2019-05-02T22:26:32.725Z,11.87
2019-05-02T22:29:01.937Z,11.73
2019-05-02T22:31:29.022Z,11.40
2019-05-02T22:33:56.329Z,11.37
2019-05-02T22:36:23.455Z,12.07
2019-05-02T22:38:55.675Z,11.87
2019-05-02T22:41:22.679Z,13.37
2019-05-02T22:43:49.690Z,12.10
2019-05-02T22:46:36.645Z,13.60
2019-05-02T22:49:04.119Z,12.97
2019-05-02T22:51:32.018Z,12.60
2019-05-02T22:53:59.120Z,13.20
2019-05-02T22:56:26.160Z,13.63
2019-05-02T22:58:53.439Z,12.67
2019-05-02T23:01:21.623Z,13.33
2019-05-02T23:03:48.739Z,12.63
2019-05-02T23:06:15.733Z,13.80
2019-05-02T23:08:43.510Z,12.97
2019-05-02T23:11:10.630Z,12.17
2019-05-02T23:13:37.645Z,13.47
2019-05-02T23:16:04.701Z,11.80
2019-05-02T23:18:32.014Z,12.27
2019-05-02T23:21:06.468Z,12.53
2019-05-02T23:23:33.461Z,12.33
2019-05-02T23:26:16.591Z,13.37
2019-05-02T23:28:46.295Z,11.90
2019-05-02T23:31:14.053Z,11.47
2019-05-02T23:34:01.821Z,12.03
2019-05-02T23:36:29.917Z,11.03
2019-05-02T23:38:57.205Z,10.80
2019-05-02T23:41:28.851Z,10.73
2019-05-02T23:43:55.965Z,11.27
2019-05-02T23:46:22.924Z,10.50
2019-05-02T23:48:50.076Z,11.17
2019-05-02T23:51:17.193Z,9.57
2019-05-02T23:54:02.556Z,9.43
2019-05-02T23:56:29.542Z,9.07
2019-05-02T23:58:56.520Z,10.30
